createdAt,value
2024-03-07T00:01:27.858Z,35.13
2024-03-07T00:06:24.383Z,29.77
2024-03-07T00:11:20.956Z,31.45
2024-03-07T00:16:18.301Z,33.17
2024-03-07T00:21:14.760Z,32.63
2024-03-07T00:26:11.674Z,26.30
2024-03-07T00:31:08.367Z,24.17
2024-03-07T00:36:05.301Z,30.25
2024-03-07T00:41:01.817Z,26.63
2024-03-07T00:45:58.259Z,31.92
2024-03-07T00:50:54.823Z,27.50
2024-03-07T00:55:51.378Z,34.83
2024-03-07T01:00:48.872Z,30.65
2024-03-07T01:05:46.129Z,24.35
2024-03-07T01:10:42.717Z,35.63
2024-03-07T01:15:39.185Z,30.80
2024-03-07T01:20:36.651Z,36.53
2024-03-07T01:25:34.915Z,31.65
2024-03-07T01:30:31.485Z,30.25
2024-03-07T01:35:27.998Z,35.45
2024-03-07T01:40:24.564Z,31.73
2024-03-07T01:45:21.050Z,34.63
2024-03-07T01:50:18.806Z,30.25
2024-03-07T01:55:16.254Z,31.45
2024-03-07T02:00:14.009Z,36.35
2024-03-07T02:05:11.216Z,37.35
2024-03-07T02:10:07.970Z,38.95
2024-03-07T02:15:04.800Z,33.53
2024-03-07T02:20:01.229Z,40.35
2024-03-07T02:24:57.654Z,35.67
2024-03-07T02:29:54.205Z,32.17
2024-03-07T02:34:50.748Z,38.67
2024-03-07T02:39:47.303Z,28.35
2024-03-07T02:44:43.904Z,32.72
2024-03-07T02:49:40.373Z,32.85
2024-03-07T02:54:36.834Z,26.95
2024-03-07T02:59:33.371Z,27.85
2024-03-07T03:04:30.269Z,27.13
2024-03-07T03:09:28.748Z,28.90
2024-03-07T03:14:25.275Z,27.58
2024-03-07T03:19:24.314Z,26.83
2024-03-07T03:24:21.280Z,32.92
2024-03-07T03:29:19.335Z,30.17
2024-03-07T03:34:15.925Z,29.95
2024-03-07T03:39:14.493Z,28.00
2024-03-07T03:44:12.516Z,23.58
2024-03-07T03:49:09.089Z,25.13
2024-03-07T03:54:06.810Z,28.23
2024-03-07T03:59:03.325Z,22.40
2024-03-07T04:03:59.820Z,27.33
2024-03-07T04:08:56.713Z,22.70
2024-03-07T04:13:53.314Z,27.30
2024-03-07T04:18:49.808Z,25.33
2024-03-07T04:23:47.629Z,26.13
2024-03-07T04:28:44.249Z,26.17
2024-03-07T04:33:41.029Z,27.52
2024-03-07T04:38:37.552Z,23.95
2024-03-07T04:43:34.407Z,28.33
2024-03-07T04:48:30.873Z,23.88
2024-03-07T04:53:27.493Z,27.75
2024-03-07T04:58:24.103Z,27.48
2024-03-07T05:03:20.877Z,25.00
2024-03-07T05:08:17.436Z,21.05
2024-03-07T05:13:13.921Z,24.52
2024-03-07T05:18:10.972Z,21.52
2024-03-07T05:23:07.470Z,25.92
2024-03-07T05:28:05.046Z,19.38
2024-03-07T05:33:02.719Z,23.13
2024-03-07T05:38:01.029Z,19.67
2024-03-07T05:42:58.221Z,19.17
2024-03-07T05:47:54.815Z,22.17
2024-03-07T05:52:51.297Z,20.20
2024-03-07T05:57:47.778Z,18.40
2024-03-07T06:02:44.388Z,22.73
2024-03-07T06:07:40.908Z,22.20
2024-03-07T06:12:40.065Z,17.98
2024-03-07T06:17:40.238Z,22.67
2024-03-07T06:22:36.764Z,22.20
2024-03-07T06:27:38.541Z,20.80
2024-03-07T06:32:35.083Z,22.42
2024-03-07T06:37:31.566Z,26.33
2024-03-07T06:42:28.020Z,22.45
2024-03-07T06:47:24.639Z,20.00
2024-03-07T06:52:21.946Z,21.15
2024-03-07T06:57:18.461Z,20.67
2024-03-07T07:02:15.109Z,21.27
2024-03-07T07:07:13.965Z,18.92
2024-03-07T07:12:10.480Z,22.85
2024-03-07T07:17:09.385Z,19.45
2024-03-07T07:22:07.538Z,18.92
2024-03-07T07:27:04.309Z,20.65
2024-03-07T07:32:00.839Z,17.27
2024-03-07T07:36:57.910Z,20.75
2024-03-07T07:41:54.447Z,19.77
2024-03-07T07:46:50.947Z,16.98
2024-03-07T07:51:49.469Z,18.40
2024-03-07T07:56:46.005Z,21.90
2024-03-07T08:01:42.477Z,22.98
2024-03-07T08:06:39.017Z,20.05
2024-03-07T08:11:35.495Z,21.83
2024-03-07T08:16:32.019Z,22.45
2024-03-07T08:21:28.491Z,22.60
2024-03-07T08:26:25.071Z,20.73
2024-03-07T08:31:21.523Z,20.38
2024-03-07T08:36:17.961Z,20.38
2024-03-07T08:41:14.573Z,17.88
2024-03-07T08:46:11.226Z,16.75
2024-03-07T08:51:07.760Z,15.70
2024-03-07T08:56:04.458Z,18.90
2024-03-07T09:01:01.454Z,17.52
2024-03-07T09:05:57.944Z,18.63
2024-03-07T09:10:56.342Z,15.50
2024-03-07T09:15:53.310Z,18.98
2024-03-07T09:20:49.953Z,22.85
2024-03-07T09:25:46.771Z,22.23
2024-03-07T09:30:43.324Z,24.55
2024-03-07T09:35:40.214Z,26.27
2024-03-07T09:40:36.818Z,20.60
2024-03-07T09:45:35.547Z,26.10
2024-03-07T09:50:32.764Z,20.58
2024-03-07T09:55:29.510Z,26.77
2024-03-07T10:00:27.868Z,23.08
2024-03-07T10:05:28.599Z,24.80
2024-03-07T10:10:25.428Z,27.85
2024-03-07T10:15:22.692Z,30.25
2024-03-07T10:20:23.165Z,23.42
2024-03-07T10:25:25.267Z,23.52
2024-03-07T10:30:22.438Z,28.55
2024-03-07T10:35:24.048Z,28.63
2024-03-07T10:40:23.181Z,27.27
2024-03-07T10:45:23.343Z,25.40
2024-03-07T10:50:48.479Z,22.17
2024-03-07T10:56:12.307Z,22.65
2024-03-07T11:01:14.110Z,21.65
2024-03-07T11:06:12.695Z,23.38
2024-03-07T11:11:09.754Z,23.80
2024-03-07T11:16:07.552Z,23.30
2024-03-07T11:21:08.489Z,26.73
2024-03-07T11:26:09.994Z,22.00
2024-03-07T11:31:12.906Z,27.42
2024-03-07T11:36:12.875Z,23.80
2024-03-07T11:41:14.485Z,24.35
2024-03-07T11:46:17.640Z,25.27
2024-03-07T11:51:16.425Z,24.60
2024-03-07T11:56:17.780Z,29.38
2024-03-07T12:01:17.687Z,25.23
2024-03-07T12:06:18.204Z,30.13
2024-03-07T12:11:17.034Z,29.40
2024-03-07T12:16:13.807Z,29.15
2024-03-07T12:21:10.912Z,26.35
2024-03-07T12:26:07.565Z,26.42
2024-03-07T12:31:05.117Z,27.38
2024-03-07T12:36:07.681Z,27.35
2024-03-07T12:41:14.452Z,25.73
2024-03-07T12:46:16.162Z,30.23
2024-03-07T12:51:17.749Z,27.10
2024-03-07T12:56:17.414Z,28.00
2024-03-07T13:01:14.357Z,25.98
2024-03-07T13:06:12.096Z,29.98
2024-03-07T13:11:10.849Z,29.05
2024-03-07T13:16:10.675Z,27.15
2024-03-07T13:21:11.957Z,28.90
2024-03-07T13:26:17.963Z,29.13
2024-03-07T13:31:18.183Z,27.15
2024-03-07T13:36:15.911Z,27.20
2024-03-07T13:41:12.946Z,27.85
2024-03-07T13:46:09.479Z,24.45
2024-03-07T13:51:09.389Z,25.45
2024-03-07T13:56:39.883Z,31.15
2024-03-07T14:02:04.887Z,31.02
2024-03-07T14:07:34.830Z,27.42
2024-03-07T14:12:59.432Z,26.65
2024-03-07T14:18:47.454Z,22.63
2024-03-07T14:24:05.544Z,22.00
2024-03-07T14:29:16.232Z,22.77
2024-03-07T14:34:30.851Z,23.50
2024-03-07T14:39:27.353Z,24.75
2024-03-07T14:44:24.108Z,24.40
2024-03-07T14:49:21.214Z,23.98
2024-03-07T14:54:17.766Z,23.98
2024-03-07T14:59:14.233Z,23.23
2024-03-07T15:04:12.345Z,24.00
2024-03-07T15:09:11.029Z,20.27
2024-03-07T15:14:11.041Z,22.85
2024-03-07T15:19:09.587Z,22.15
2024-03-07T15:24:06.835Z,24.40
2024-03-07T15:29:03.628Z,23.42
2024-03-07T15:34:00.156Z,21.15
2024-03-07T15:38:58.452Z,21.08
2024-03-07T15:43:54.959Z,23.10
2024-03-07T15:48:51.517Z,24.33
2024-03-07T15:53:48.330Z,21.02
2024-03-07T15:58:46.294Z,21.42
2024-03-07T16:03:43.606Z,20.63
2024-03-07T16:08:40.468Z,19.83
2024-03-07T16:13:39.262Z,28.88
2024-03-07T16:18:36.627Z,21.90
2024-03-07T16:23:33.174Z,25.33
2024-03-07T16:28:29.643Z,24.58
2024-03-07T16:33:29.254Z,27.05
2024-03-07T16:38:26.033Z,28.02
2024-03-07T16:43:25.513Z,27.58
2024-03-07T16:48:22.264Z,37.22
2024-03-07T16:53:18.789Z,37.42
2024-03-07T16:58:17.201Z,28.80
2024-03-07T17:03:15.993Z,34.17
2024-03-07T17:08:14.065Z,29.55
2024-03-07T17:13:11.493Z,33.53
2024-03-07T17:18:11.300Z,26.50
2024-03-07T17:23:08.877Z,28.17
2024-03-07T17:28:05.727Z,29.85
2024-03-07T17:33:02.480Z,36.60
2024-03-07T17:37:59.235Z,31.42
2024-03-07T17:42:56.293Z,29.52
2024-03-07T17:47:58.312Z,32.20
2024-03-07T17:53:04.350Z,25.52
2024-03-07T17:58:04.050Z,29.45
2024-03-07T18:03:07.374Z,28.13
2024-03-07T18:08:27.716Z,32.28
2024-03-07T18:13:27.778Z,27.98
2024-03-07T18:18:25.765Z,33.03
2024-03-07T18:23:22.888Z,27.20
2024-03-07T18:28:22.281Z,26.13
2024-03-07T18:33:19.379Z,23.75
2024-03-07T18:38:16.598Z,31.75
2024-03-07T18:43:13.878Z,23.90
2024-03-07T18:48:13.121Z,26.20
2024-03-07T18:53:10.113Z,25.50
2024-03-07T18:58:07.594Z,28.00
2024-03-07T19:03:07.388Z,28.17
2024-03-07T19:08:16.197Z,27.48
2024-03-07T19:13:14.452Z,26.60
2024-03-07T19:18:13.844Z,24.00
2024-03-07T19:23:11.833Z,30.38
2024-03-07T19:28:15.458Z,25.52
2024-03-07T19:33:15.797Z,24.92
2024-03-07T19:38:15.281Z,26.55
2024-03-07T19:43:12.458Z,28.80
2024-03-07T19:48:12.590Z,23.83
2024-03-07T19:53:17.240Z,28.35
2024-03-07T19:58:14.098Z,25.08
2024-03-07T20:03:11.489Z,24.70
2024-03-07T20:08:08.940Z,25.55
2024-03-07T20:13:05.367Z,29.30
2024-03-07T20:18:01.943Z,25.70
2024-03-07T20:22:58.492Z,24.83
2024-03-07T20:27:56.819Z,29.25
2024-03-07T20:32:55.028Z,30.98
2024-03-07T20:37:51.522Z,24.23
2024-03-07T20:42:48.213Z,28.35
2024-03-07T20:47:46.695Z,27.65
2024-03-07T20:52:47.169Z,25.75
2024-03-07T20:57:47.300Z,26.67
2024-03-07T21:02:45.243Z,24.60
2024-03-07T21:07:42.738Z,28.65
2024-03-07T21:12:40.924Z,27.83
2024-03-07T21:17:37.957Z,23.77
2024-03-07T21:22:35.040Z,28.48
2024-03-07T21:27:31.440Z,26.30
2024-03-07T21:32:27.932Z,24.95
2024-03-07T21:37:24.447Z,27.67
2024-03-07T21:42:20.967Z,24.27
2024-03-07T21:47:18.210Z,29.20
2024-03-07T21:52:18.032Z,27.90
2024-03-07T21:57:14.961Z,26.63
2024-03-07T22:02:15.966Z,23.48
2024-03-07T22:07:15.891Z,27.15
2024-03-07T22:12:12.319Z,22.77
2024-03-07T22:17:08.834Z,26.10
2024-03-07T22:22:05.431Z,27.25
2024-03-07T22:27:02.149Z,21.67
2024-03-07T22:31:58.678Z,22.23
2024-03-07T22:36:55.126Z,27.58
2024-03-07T22:41:52.616Z,21.02
2024-03-07T22:46:49.117Z,22.95
2024-03-07T22:51:45.572Z,23.80
2024-03-07T22:56:44.558Z,24.92
2024-03-07T23:01:42.604Z,20.75
2024-03-07T23:06:39.043Z,25.75
2024-03-07T23:11:35.800Z,25.17
2024-03-07T23:16:32.390Z,25.63
2024-03-07T23:21:28.835Z,23.00
2024-03-07T23:26:25.411Z,24.08
2024-03-07T23:31:22.223Z,35.80
2024-03-07T23:36:18.737Z,23.17
2024-03-07T23:41:21.358Z,23.73
2024-03-07T23:46:17.833Z,20.73
2024-03-07T23:51:14.335Z,29.45
2024-03-07T23:56:10.820Z,26.23
